createdAt,value
2022-09-05T00:00:26.765Z,2.25
2022-09-05T00:03:12.208Z,2.50
2022-09-05T00:06:12.943Z,2.47
2022-09-05T00:08:47.411Z,2.38
2022-09-05T00:11:41.254Z,2.60
2022-09-05T00:15:17.254Z,3.05
2022-09-05T00:20:38.567Z,2.85
2022-09-05T00:24:27.147Z,2.60
2022-09-05T00:24:29.056Z,2.80
2022-09-05T00:27:07.908Z,2.80
2022-09-05T00:30:35.010Z,2.90
2022-09-05T00:33:19.540Z,2.45
2022-09-05T00:36:01.055Z,2.90
2022-09-05T00:38:36.706Z,2.70
2022-09-05T00:41:14.137Z,2.50
2022-09-05T00:43:44.121Z,2.95
2022-09-05T00:46:18.506Z,2.85
2022-09-05T00:49:06.864Z,2.53
2022-09-05T00:52:01.021Z,2.25
2022-09-05T00:54:45.611Z,2.55
2022-09-05T00:57:28.256Z,2.45
2022-09-05T01:00:23.886Z,2.60
2022-09-05T01:03:16.221Z,2.95
2022-09-05T01:06:02.350Z,2.90
2022-09-05T01:08:49.932Z,3.13
2022-09-05T01:11:55.397Z,3.20
2022-09-05T01:14:35.047Z,3.42
2022-09-05T01:17:20.511Z,3.13
2022-09-05T01:19:56.483Z,3.35
2022-09-05T01:23:07.274Z,3.20
2022-09-05T01:26:02.045Z,2.60
2022-09-05T01:29:15.588Z,2.72
2022-09-05T01:31:30.381Z,3.00
2022-09-05T01:34:24.871Z,2.70
2022-09-05T01:37:05.252Z,2.78
2022-09-05T01:40:14.964Z,2.97
2022-09-05T01:43:10.891Z,3.17
2022-09-05T01:46:07.783Z,2.65
2022-09-05T01:49:09.980Z,2.58
2022-09-05T01:52:14.483Z,3.00
2022-09-05T01:55:11.481Z,3.08
2022-09-05T01:57:53.234Z,3.00
2022-09-05T02:00:29.699Z,3.50
2022-09-05T02:03:08.599Z,3.28
2022-09-05T02:05:57.523Z,3.13
2022-09-05T02:08:49.129Z,3.17
2022-09-05T02:11:16.416Z,2.80
2022-09-05T02:14:34.235Z,3.40
2022-09-05T02:17:33.543Z,3.15
2022-09-05T02:20:14.486Z,2.80
2022-09-05T02:23:25.999Z,3.10
2022-09-05T02:26:07.095Z,3.20
2022-09-05T02:28:58.681Z,2.97
2022-09-05T02:31:52.199Z,3.38
2022-09-05T02:34:37.837Z,2.80
2022-09-05T02:40:12.567Z,3.20
2022-09-05T02:45:09.704Z,3.10
2022-09-05T02:45:13.249Z,2.75
2022-09-05T02:46:55.867Z,3.00
2022-09-05T02:52:38.090Z,3.00
2022-09-05T02:57:26.122Z,3.55
2022-09-05T02:57:42.126Z,3.40
2022-09-05T02:58:25.071Z,3.40
2022-09-05T03:01:09.491Z,3.30
2022-09-05T03:04:26.358Z,3.45
2022-09-05T03:07:22.309Z,3.00
2022-09-05T03:10:11.017Z,3.78
2022-09-05T03:13:12.430Z,3.20
2022-09-05T03:16:13.380Z,3.08
2022-09-05T03:19:17.657Z,3.00
2022-09-05T03:22:22.754Z,2.63
2022-09-05T03:24:58.079Z,3.13
2022-09-05T03:27:46.733Z,3.05
2022-09-05T03:30:24.991Z,3.00
2022-09-05T03:33:07.515Z,3.05
2022-09-05T03:36:02.910Z,3.25
2022-09-05T03:38:51.709Z,3.33
2022-09-05T03:41:39.994Z,2.90
2022-09-05T03:44:51.089Z,3.28
2022-09-05T03:47:41.674Z,3.00
2022-09-05T03:53:34.326Z,3.40
2022-09-05T03:57:11.162Z,3.53
2022-09-05T03:57:15.202Z,3.70
2022-09-05T04:00:02.797Z,3.38
2022-09-05T04:08:09.142Z,3.20
2022-09-05T04:08:16.943Z,3.80
2022-09-05T04:08:45.745Z,4.00
2022-09-05T04:11:27.878Z,3.90
2022-09-05T04:14:02.832Z,3.80
2022-09-05T04:16:33.489Z,3.88
2022-09-05T04:19:17.365Z,3.85
2022-09-05T04:21:55.761Z,3.42
2022-09-05T04:24:43.710Z,3.58
2022-09-05T04:27:27.785Z,3.20
2022-09-05T04:30:39.685Z,3.60
2022-09-05T04:33:38.663Z,4.13
2022-09-05T04:36:36.300Z,3.72
2022-09-05T04:39:08.474Z,4.07
2022-09-05T04:41:42.940Z,3.75
2022-09-05T04:44:18.551Z,3.65
2022-09-05T04:46:51.133Z,3.88
2022-09-05T04:49:27.332Z,3.88
2022-09-05T04:52:14.823Z,4.30
2022-09-05T04:54:53.643Z,3.90
2022-09-05T04:57:58.898Z,4.05
2022-09-05T05:06:05.548Z,4.22
2022-09-05T05:06:08.226Z,3.88
2022-09-05T05:06:37.933Z,4.38
2022-09-05T05:09:22.867Z,4.40
2022-09-05T05:18:01.199Z,4.60
2022-09-05T05:29:20.383Z,4.25
2022-09-05T05:31:54.737Z,3.80
2022-09-05T05:34:33.177Z,4.03
2022-09-05T05:37:07.629Z,4.30
2022-09-05T05:39:42.869Z,4.95
2022-09-05T05:42:27.528Z,4.30
2022-09-05T05:44:57.713Z,4.40
2022-09-05T05:47:32.654Z,4.15
2022-09-05T05:50:18.332Z,4.18
2022-09-05T05:53:29.196Z,3.83
2022-09-05T05:56:17.251Z,3.67
2022-09-05T05:59:03.209Z,3.92
2022-09-05T06:01:54.709Z,3.60
2022-09-05T06:04:48.924Z,3.38
2022-09-05T06:07:22.355Z,3.60
2022-09-05T06:14:52.657Z,3.50
2022-09-05T06:14:58.263Z,3.75
2022-09-05T06:16:45.942Z,3.95
2022-09-05T06:19:39.151Z,3.58
2022-09-05T06:22:43.025Z,3.47
2022-09-05T06:25:16.888Z,4.20
2022-09-05T06:28:18.853Z,3.60
2022-09-05T06:31:30.550Z,4.05
2022-09-05T06:34:35.936Z,4.00
2022-09-05T06:37:25.813Z,3.97
2022-09-05T06:40:20.520Z,3.70
2022-09-05T06:43:11.390Z,3.95
2022-09-05T06:45:44.227Z,3.33
2022-09-05T06:48:53.336Z,3.40
2022-09-05T06:52:27.966Z,3.70
2022-09-05T06:55:19.049Z,3.85
2022-09-05T06:57:45.723Z,4.07
2022-09-05T07:00:23.749Z,3.58
2022-09-05T07:03:24.420Z,3.88
2022-09-05T07:06:20.292Z,4.00
2022-09-05T07:08:56.049Z,3.95
2022-09-05T07:11:34.569Z,3.63
2022-09-05T07:14:27.933Z,4.03
2022-09-05T07:17:10.872Z,3.50
2022-09-05T07:20:01.913Z,3.70
2022-09-05T07:22:55.046Z,4.00
2022-09-05T07:25:31.638Z,4.05
2022-09-05T07:28:29.933Z,4.00
2022-09-05T07:31:06.472Z,3.80
2022-09-05T07:33:35.149Z,4.40
2022-09-05T07:36:23.832Z,3.42
2022-09-05T07:39:12.211Z,4.03
2022-09-05T07:41:51.217Z,3.80
2022-09-05T07:44:25.724Z,3.90
2022-09-05T07:47:29.738Z,3.50
2022-09-05T07:52:44.454Z,3.55
2022-09-05T07:56:55.148Z,3.25
2022-09-05T07:57:02.494Z,3.83
2022-09-05T07:58:31.502Z,4.03
2022-09-05T08:00:58.579Z,3.35
2022-09-05T08:03:31.682Z,4.22
2022-09-05T08:06:05.433Z,4.05
2022-09-05T08:09:21.167Z,3.83
2022-09-05T08:11:42.956Z,3.72
2022-09-05T08:14:44.906Z,3.90
2022-09-05T08:17:21.231Z,4.15
2022-09-05T08:20:18.618Z,3.35
2022-09-05T08:23:19.187Z,3.67
2022-09-05T08:25:59.940Z,3.72
2022-09-05T08:28:39.932Z,3.60
2022-09-05T08:31:20.931Z,4.07
2022-09-05T08:33:52.802Z,3.67
2022-09-05T08:36:31.333Z,3.65
2022-09-05T08:39:03.566Z,3.28
2022-09-05T08:41:52.268Z,3.00
2022-09-05T08:46:37.858Z,3.10
2022-09-05T08:47:45.249Z,2.60
2022-09-05T08:50:31.518Z,3.85
2022-09-05T08:53:45.364Z,3.03
2022-09-05T08:56:24.019Z,3.10
2022-09-05T08:59:31.635Z,3.10
2022-09-05T09:02:46.990Z,3.15
2022-09-05T09:05:14.144Z,3.20
2022-09-05T09:07:52.457Z,3.28
2022-09-05T09:10:34.875Z,3.00
2022-09-05T09:13:07.703Z,2.63
2022-09-05T09:16:05.185Z,2.90
2022-09-05T09:18:52.198Z,2.90
2022-09-05T09:21:29.216Z,3.38
2022-09-05T09:24:08.742Z,3.10
2022-09-05T09:26:43.506Z,2.95
2022-09-05T09:29:13.241Z,2.60
2022-09-05T09:31:45.942Z,2.88
2022-09-05T09:34:47.182Z,2.60
2022-09-05T09:37:50.546Z,2.50
2022-09-05T09:40:30.022Z,2.72
2022-09-05T09:43:19.580Z,2.75
2022-09-05T09:46:05.204Z,2.85
2022-09-05T09:49:10.720Z,2.50
2022-09-05T09:52:08.507Z,2.92
2022-09-05T09:55:42.788Z,2.30
2022-09-05T09:58:41.303Z,2.70
2022-09-05T10:01:34.873Z,2.60
2022-09-05T10:07:50.260Z,2.35
2022-09-05T10:10:47.754Z,2.50
2022-09-05T10:11:22.496Z,2.42
2022-09-05T10:13:59.550Z,2.60
2022-09-05T10:16:26.661Z,2.80
2022-09-05T10:19:08.994Z,2.95
2022-09-05T10:25:19.632Z,2.30
2022-09-05T10:28:27.996Z,2.72
2022-09-05T10:34:16.067Z,2.75
2022-09-05T10:35:15.398Z,2.63
2022-09-05T10:37:28.069Z,2.42
2022-09-05T10:39:57.212Z,2.67
2022-09-05T10:42:59.730Z,2.38
2022-09-05T10:45:40.816Z,2.58
2022-09-05T10:48:15.556Z,2.63
2022-09-05T10:50:54.201Z,2.30
2022-09-05T10:53:42.826Z,2.28
2022-09-05T10:56:28.373Z,2.40
2022-09-05T11:02:19.384Z,2.60
2022-09-05T11:02:21.118Z,2.20
2022-09-05T11:05:06.513Z,2.80
2022-09-05T11:07:45.115Z,2.83
2022-09-05T11:10:31.510Z,2.75
2022-09-05T11:13:08.589Z,2.15
2022-09-05T11:16:10.302Z,2.25
2022-09-05T11:18:59.004Z,2.63
2022-09-05T11:21:37.977Z,2.47
2022-09-05T11:24:32.728Z,2.80
2022-09-05T11:27:24.980Z,2.60
2022-09-05T11:30:29.975Z,2.80
2022-09-05T11:39:51.197Z,2.47
2022-09-05T11:39:58.915Z,2.70
2022-09-05T11:40:09.882Z,2.67
2022-09-05T11:42:41.498Z,2.40
2022-09-05T11:45:29.294Z,2.20
2022-09-05T11:48:22.150Z,2.58
2022-09-05T11:51:43.027Z,2.50
2022-09-05T11:54:28.270Z,2.40
2022-09-05T11:57:32.543Z,2.40
2022-09-05T12:00:33.554Z,2.30
2022-09-05T12:03:57.004Z,2.70
2022-09-05T12:06:49.752Z,2.38
2022-09-05T12:09:47.603Z,2.40
2022-09-05T12:12:41.785Z,2.17
2022-09-05T12:15:34.630Z,2.70
2022-09-05T12:18:24.091Z,2.17
2022-09-05T12:21:26.084Z,2.30
2022-09-05T12:25:23.675Z,2.40
2022-09-05T12:27:38.199Z,2.30
2022-09-05T12:36:02.109Z,2.72
2022-09-05T12:36:11.324Z,2.25
2022-09-05T12:41:01.172Z,2.17
2022-09-05T12:41:41.894Z,2.50
2022-09-05T12:42:09.584Z,2.50
2022-09-05T12:45:11.944Z,2.65
2022-09-05T12:48:00.075Z,2.03
2022-09-05T12:50:43.373Z,2.40
2022-09-05T12:53:18.626Z,2.55
2022-09-05T12:56:09.418Z,2.60
2022-09-05T13:02:55.480Z,2.08
2022-09-05T13:03:07.316Z,2.50
2022-09-05T13:04:32.251Z,2.58
2022-09-05T13:07:13.341Z,2.55
2022-09-05T13:11:39.234Z,2.10
2022-09-05T13:15:03.003Z,2.10
2022-09-05T13:15:50.959Z,2.47
2022-09-05T13:18:37.400Z,1.80
2022-09-05T13:21:10.115Z,1.90
2022-09-05T13:23:58.218Z,2.20
2022-09-05T13:26:36.736Z,2.00
2022-09-05T13:29:13.393Z,2.00
2022-09-05T13:38:02.789Z,2.00
2022-09-05T13:38:03.040Z,1.90
2022-09-05T13:38:10.557Z,2.08
2022-09-05T13:40:31.549Z,2.10
2022-09-05T13:43:16.701Z,1.98
2022-09-05T13:46:19.881Z,2.47
2022-09-05T13:52:11.852Z,2.33
2022-09-05T13:54:51.727Z,2.20
2022-09-05T13:57:44.794Z,2.05
2022-09-05T14:00:27.011Z,2.50
2022-09-05T14:03:37.481Z,2.33
2022-09-05T14:06:30.749Z,2.15
2022-09-05T14:09:41.013Z,2.30
2022-09-05T14:12:29.402Z,2.03
2022-09-05T14:15:35.146Z,1.85
2022-09-05T14:18:27.192Z,2.17
2022-09-05T14:21:15.952Z,2.08
2022-09-05T14:23:55.995Z,2.30
2022-09-05T14:26:32.039Z,2.22
2022-09-05T14:29:16.883Z,2.42
2022-09-05T14:37:36.554Z,2.22
2022-09-05T14:37:49.992Z,2.45
2022-09-05T14:38:09.623Z,2.42
2022-09-05T14:41:02.795Z,2.35
2022-09-05T14:43:49.712Z,2.28
2022-09-05T14:46:43.260Z,2.30
2022-09-05T14:49:25.868Z,2.50
2022-09-05T14:51:53.129Z,2.47
2022-09-05T15:02:40.895Z,2.55
2022-09-05T15:02:42.654Z,2.00
2022-09-05T15:03:08.621Z,2.17
2022-09-05T15:05:41.253Z,2.33
2022-09-05T15:08:35.239Z,1.80
2022-09-05T15:12:22.072Z,2.10
2022-09-05T15:14:03.843Z,2.35
2022-09-05T15:16:38.410Z,2.60
2022-09-05T15:19:08.707Z,2.20
2022-09-05T15:21:38.332Z,2.03
2022-09-05T15:24:24.403Z,2.35
2022-09-05T15:27:02.040Z,2.45
2022-09-05T15:29:34.379Z,2.67
2022-09-05T15:32:26.412Z,2.30
2022-09-05T15:34:56.060Z,2.05
2022-09-05T15:37:42.215Z,2.00
2022-09-05T15:40:22.777Z,2.30
2022-09-05T15:42:55.615Z,1.95
2022-09-05T15:45:35.730Z,2.40
2022-09-05T15:48:33.961Z,2.10
2022-09-05T15:51:11.186Z,2.30
2022-09-05T15:53:38.612Z,2.30
2022-09-05T15:56:11.798Z,2.28
2022-09-05T15:58:55.161Z,2.50
2022-09-05T16:01:59.143Z,2.20
2022-09-05T16:08:56.838Z,2.17
2022-09-05T16:10:33.927Z,2.60
2022-09-05T16:10:43.468Z,2.28
2022-09-05T16:12:56.324Z,2.20
2022-09-05T16:19:45.951Z,1.90
2022-09-05T16:23:15.700Z,2.35
2022-09-05T16:23:25.293Z,2.30
2022-09-05T16:24:24.802Z,2.25
2022-09-05T16:27:06.895Z,1.90
2022-09-05T16:29:40.788Z,2.20
2022-09-05T16:32:19.029Z,2.58
2022-09-05T16:34:50.213Z,2.60
2022-09-05T16:37:23.067Z,2.33
2022-09-05T16:39:59.172Z,1.90
2022-09-05T16:42:47.826Z,2.00
2022-09-05T16:45:44.677Z,2.10
2022-09-05T16:48:14.271Z,1.80
2022-09-05T16:50:50.435Z,2.10
2022-09-05T16:53:32.659Z,1.90
2022-09-05T16:56:08.467Z,2.35
2022-09-05T16:58:50.025Z,2.38
2022-09-05T17:01:20.329Z,2.10
2022-09-05T17:03:47.186Z,2.10
2022-09-05T17:06:31.206Z,2.40
2022-09-05T17:09:12.923Z,1.80
2022-09-05T17:11:54.557Z,2.20
2022-09-05T17:14:39.034Z,1.77
2022-09-05T17:18:19.174Z,2.50
2022-09-05T17:20:16.434Z,1.95
2022-09-05T17:27:46.913Z,2.00
2022-09-05T17:29:33.144Z,4.90
2022-09-05T17:29:34.130Z,2.70
2022-09-05T17:31:55.103Z,5.18
2022-09-05T17:35:17.156Z,6.20
2022-09-05T17:38:24.166Z,4.90
2022-09-05T17:41:09.503Z,3.95
2022-09-05T17:43:39.326Z,3.47
2022-09-05T17:46:12.031Z,3.63
2022-09-05T17:48:52.838Z,4.15
2022-09-05T17:51:34.557Z,4.05
2022-09-05T17:54:08.420Z,3.47
2022-09-05T17:56:39.336Z,2.80
2022-09-05T17:59:28.335Z,2.75
2022-09-05T18:02:07.884Z,2.80
2022-09-05T18:04:44.965Z,2.53
2022-09-05T18:07:27.064Z,2.78
2022-09-05T18:10:15.557Z,2.38
2022-09-05T18:13:14.254Z,3.25
2022-09-05T18:15:40.741Z,2.72
2022-09-05T18:19:28.609Z,2.83
2022-09-05T18:21:23.047Z,2.75
2022-09-05T18:24:04.051Z,3.17
2022-09-05T18:26:40.096Z,5.45
2022-09-05T18:29:57.280Z,3.90
2022-09-05T18:32:41.985Z,3.40
2022-09-05T18:35:37.061Z,3.13
2022-09-05T18:38:05.294Z,2.97
2022-09-05T18:41:21.658Z,2.60
2022-09-05T18:44:14.057Z,2.50
2022-09-05T18:46:47.954Z,3.17
2022-09-05T18:50:25.552Z,3.05
2022-09-05T18:52:23.711Z,3.10
2022-09-05T18:55:51.109Z,3.00
2022-09-05T18:57:57.854Z,3.05
2022-09-05T19:00:43.967Z,2.90
2022-09-05T19:03:24.834Z,2.50
2022-09-05T19:06:34.658Z,2.45
2022-09-05T19:08:54.802Z,2.55
2022-09-05T19:11:28.986Z,2.72
2022-09-05T19:14:25.370Z,3.15
2022-09-05T19:16:48.401Z,2.70
2022-09-05T19:19:24.435Z,3.33
2022-09-05T19:22:39.602Z,3.05
2022-09-05T19:24:46.314Z,3.10
2022-09-05T19:28:33.668Z,3.00
2022-09-05T19:36:56.175Z,2.72
2022-09-05T19:37:06.615Z,2.38
2022-09-05T19:37:10.139Z,2.72
2022-09-05T19:39:43.266Z,2.47
2022-09-05T19:47:28.549Z,2.28
2022-09-05T19:47:41.667Z,2.53
2022-09-05T19:47:56.181Z,2.40
2022-09-05T19:50:12.329Z,2.50
2022-09-05T19:52:39.871Z,2.58
2022-09-05T19:55:22.802Z,2.45
2022-09-05T19:58:19.187Z,2.53
2022-09-05T20:00:45.990Z,2.67
2022-09-05T20:03:28.309Z,2.95
2022-09-05T20:06:01.359Z,2.60
2022-09-05T20:08:34.303Z,2.47
2022-09-05T20:11:03.693Z,2.45
2022-09-05T20:13:31.024Z,2.80
2022-09-05T20:16:01.844Z,3.00
2022-09-05T20:18:42.266Z,3.60
2022-09-05T20:21:16.414Z,3.42
2022-09-05T20:23:48.284Z,3.17
2022-09-05T20:26:23.079Z,3.00
2022-09-05T20:28:54.767Z,2.83
2022-09-05T20:31:27.262Z,2.92
2022-09-05T20:34:40.718Z,2.70
2022-09-05T20:43:11.929Z,3.08
2022-09-05T20:43:22.465Z,3.08
2022-09-05T20:43:26.645Z,3.80
2022-09-05T20:45:52.062Z,3.63
2022-09-05T20:54:05.456Z,3.47
2022-09-05T20:54:13.490Z,3.83
2022-09-05T20:54:33.008Z,3.67
2022-09-05T20:57:10.989Z,4.20
2022-09-05T20:59:39.525Z,4.15
2022-09-05T21:02:18.692Z,3.83
2022-09-05T21:05:20.772Z,3.58
2022-09-05T21:07:51.181Z,3.35
2022-09-05T21:10:29.374Z,3.40
2022-09-05T21:12:58.030Z,3.60
2022-09-05T21:15:52.727Z,3.63
2022-09-05T21:18:22.515Z,3.00
2022-09-05T21:20:58.586Z,3.10
2022-09-05T21:23:29.638Z,3.35
2022-09-05T21:26:22.805Z,3.25
2022-09-05T21:29:13.866Z,3.50
2022-09-05T21:31:54.466Z,3.33
2022-09-05T21:34:35.230Z,3.65
2022-09-05T21:37:07.092Z,3.40
2022-09-05T21:39:40.329Z,3.15
2022-09-05T21:44:07.352Z,3.35
2022-09-05T21:47:42.647Z,3.20
2022-09-05T21:47:54.001Z,2.97
2022-09-05T21:50:30.666Z,3.00
2022-09-05T21:53:37.919Z,3.13
2022-09-05T21:59:17.484Z,3.45
2022-09-05T21:59:27.323Z,3.45
2022-09-05T22:01:51.662Z,3.40
2022-09-05T22:04:13.683Z,3.15
2022-09-05T22:06:40.459Z,3.33
2022-09-05T22:09:13.893Z,3.30
2022-09-05T22:11:41.189Z,3.47
2022-09-05T22:14:09.305Z,3.20
2022-09-05T22:16:45.222Z,3.60
2022-09-05T22:19:22.409Z,3.53
2022-09-05T22:21:51.790Z,3.40
2022-09-05T22:24:19.275Z,3.83
2022-09-05T22:27:11.542Z,3.90
2022-09-05T22:29:36.486Z,4.03
2022-09-05T22:32:04.070Z,3.92
2022-09-05T22:34:30.889Z,3.75
2022-09-05T22:36:57.832Z,3.50
2022-09-05T22:39:36.804Z,4.20
2022-09-05T22:42:10.005Z,3.35
2022-09-05T22:44:41.396Z,3.53
2022-09-05T22:47:09.758Z,4.10
2022-09-05T22:49:36.970Z,3.80
2022-09-05T22:52:08.205Z,3.90
2022-09-05T22:54:36.009Z,3.25
2022-09-05T22:57:04.070Z,3.75
2022-09-05T22:59:31.291Z,3.95
2022-09-05T23:01:58.533Z,3.60
2022-09-05T23:04:25.991Z,3.45
2022-09-05T23:06:53.020Z,3.97
2022-09-05T23:09:19.726Z,4.10
2022-09-05T23:11:46.697Z,3.75
2022-09-05T23:14:13.438Z,3.97
2022-09-05T23:16:40.129Z,3.58
2022-09-05T23:19:06.916Z,3.80
2022-09-05T23:21:34.325Z,4.05
2022-09-05T23:24:01.047Z,3.97
2022-09-05T23:26:27.977Z,4.13
2022-09-05T23:28:54.738Z,3.85
2022-09-05T23:31:21.508Z,3.75
2022-09-05T23:33:48.281Z,3.65
2022-09-05T23:36:15.138Z,4.10
2022-09-05T23:38:43.195Z,3.88
2022-09-05T23:41:14.029Z,3.83
2022-09-05T23:43:41.388Z,3.85
2022-09-05T23:46:08.851Z,3.58
2022-09-05T23:48:35.799Z,4.00
2022-09-05T23:51:11.081Z,3.88
2022-09-05T23:53:38.262Z,3.90
2022-09-05T23:56:07.324Z,4.05
2022-09-05T23:58:35.553Z,4.25
